Time;durP1;ratioP1;P1;durP2;ratioP2;P2;SDS_P1;SDS_P2;PMS_P1;PMS_P2;Temp;Humidity;BMP_temperature;BMP_pressure;BME280_temperature;BME280_humidity;BME280_pressure;Samples;Min_cycle;Max_cycle;Signal;HPM_P1;HPM_P2
2021/11/28 00:00:42;;;;;;;15.95;2.80;;;;;;;2.64;100.00;99522.44;5015818;28;20021;-76
2021/11/28 00:03:08;;;;;;;18.90;3.00;;;;;;;2.59;100.00;99526.00;5020067;28;20064;-76
2021/11/28 00:05:34;;;;;;;15.10;3.40;;;;;;;2.61;100.00;99515.56;5037900;28;20025;-75
2021/11/28 00:08:12;;;;;;;18.33;3.75;;;;;;;2.59;100.00;99522.41;5032946;28;20025;-75
2021/11/28 00:13:44;;;;;;;20.75;3.78;;;;;;;2.56;100.00;99517.47;5032578;28;20056;-75
2021/11/28 00:16:10;;;;;;;21.00;3.63;;;;;;;2.55;100.00;99527.59;5034369;28;20025;-76
2021/11/28 00:18:35;;;;;;;17.13;3.95;;;;;;;2.57;100.00;99524.59;5035822;28;20029;-76
2021/11/28 00:21:01;;;;;;;22.60;5.35;;;;;;;2.52;100.00;99522.66;5036690;28;20430;-76
2021/11/28 00:23:27;;;;;;;23.00;4.60;;;;;;;2.56;100.00;99522.94;5030498;28;20493;-75
2021/11/28 00:25:52;;;;;;;14.70;3.92;;;;;;;2.53;100.00;99518.00;5013368;28;20036;-75
2021/11/28 00:28:18;;;;;;;14.93;3.03;;;;;;;2.58;100.00;99527.06;5004812;28;20033;-75
2021/11/28 00:30:43;;;;;;;11.57;2.72;;;;;;;2.52;100.00;99530.06;5033086;28;20037;-76
2021/11/28 00:33:09;;;;;;;17.83;2.78;;;;;;;2.50;100.00;99527.56;5036219;28;20500;-76
2021/11/28 00:35:34;;;;;;;17.20;2.70;;;;;;;2.47;100.00;99525.34;5036029;28;20036;-75
2021/11/28 00:38:00;;;;;;;12.38;2.30;;;;;;;2.43;100.00;99530.56;5016666;28;20033;-75
2021/11/28 00:40:25;;;;;;;16.45;2.53;;;;;;;2.49;100.00;99528.66;5033859;28;20029;-76
2021/11/28 00:42:51;;;;;;;21.05;2.72;;;;;;;2.42;100.00;99528.91;5035647;28;20036;-76
2021/11/28 00:45:17;;;;;;;17.23;2.53;;;;;;;2.49;100.00;99531.41;5034094;28;20029;-75
2021/11/28 00:47:42;;;;;;;15.18;2.05;;;;;;;2.46;100.00;99523.72;5036106;28;20074;-76
2021/11/28 00:52:37;;;;;;;12.05;2.63;;;;;;;2.45;100.00;99524.78;5039846;28;20120;-76
2021/11/28 00:55:04;;;;;;;18.70;2.17;;;;;;;2.46;100.00;99538.25;5035993;28;20035;-76
2021/11/28 00:57:30;;;;;;;20.90;2.83;;;;;;;2.41;100.00;99527.25;5010488;28;20034;-76
2021/11/28 00:59:55;;;;;;;14.25;2.60;;;;;;;2.40;100.00;99531.09;5025964;28;20087;-76
2021/11/28 01:02:21;;;;;;;18.42;2.55;;;;;;;2.39;100.00;99521.19;5037138;28;20037;-76
2021/11/28 01:04:47;;;;;;;17.45;2.72;;;;;;;2.41;100.00;99526.41;5014827;28;20471;-76
2021/11/28 01:07:12;;;;;;;9.43;2.58;;;;;;;2.40;100.00;99528.34;5017852;28;20501;-76
2021/11/28 01:09:38;;;;;;;12.35;2.38;;;;;;;2.39;100.00;99523.94;5034538;28;20036;-76
2021/11/28 01:12:04;;;;;;;14.75;2.55;;;;;;;2.37;100.00;99528.06;5016283;28;20038;-75
2021/11/28 01:14:29;;;;;;;19.92;2.92;;;;;;;2.40;100.00;99527.53;5009119;28;20041;-75
2021/11/28 01:16:55;;;;;;;13.90;2.70;;;;;;;2.38;100.00;99535.19;5022905;28;20026;-75
2021/11/28 01:19:21;;;;;;;11.23;2.22;;;;;;;2.36;100.00;99520.91;5046645;28;20041;-76
2021/11/28 01:21:57;;;;;;;17.95;2.70;;;;;;;2.33;100.00;99519.50;5034856;28;20037;-76
2021/11/28 01:24:23;;;;;;;17.63;3.08;;;;;;;2.34;100.00;99526.66;5033212;28;20398;-76
2021/11/28 01:26:48;;;;;;;20.70;3.28;;;;;;;2.30;100.00;99533.75;5032395;28;20029;-76
2021/11/28 01:29:14;;;;;;;17.67;2.75;;;;;;;2.31;100.00;99535.38;5028707;28;20033;-76
2021/11/28 01:31:40;;;;;;;15.35;3.35;;;;;;;2.28;100.00;99537.84;5031432;28;20037;-76
2021/11/28 01:34:05;;;;;;;16.30;2.45;;;;;;;2.25;100.00;99533.72;5031988;28;20037;-76
2021/11/28 01:36:31;;;;;;;14.35;2.20;;;;;;;2.23;100.00;99527.69;5035194;28;20033;-76
2021/11/28 01:38:56;;;;;;;17.63;3.03;;;;;;;2.28;100.00;99529.63;5034246;28;20037;-76
2021/11/28 01:41:22;;;;;;;18.92;2.90;;;;;;;2.21;100.00;99533.41;5035388;28;20037;-76
2021/11/28 01:43:51;;;;;;;15.68;2.58;;;;;;;2.17;100.00;99526.81;5036303;28;20041;-75
2021/11/28 01:46:18;;;;;;;17.80;2.75;;;;;;;2.15;100.00;99528.16;5028655;28;20450;-76
2021/11/28 01:48:43;;;;;;;17.23;1.60;;;;;;;2.18;99.59;99538.59;5035756;28;20104;-75
2021/11/28 01:51:09;;;;;;;12.88;2.20;;;;;;;2.15;100.00;99539.13;5023848;28;20036;-75
2021/11/28 01:53:34;;;;;;;19.45;3.33;;;;;;;2.14;100.00;99542.94;5033098;28;20033;-75
2021/11/28 01:56:00;;;;;;;16.23;2.47;;;;;;;2.11;100.00;99549.75;5035082;28;20083;-75
2021/11/28 01:58:26;;;;;;;12.60;2.08;;;;;;;2.12;100.00;99550.63;5033849;28;20033;-75
2021/11/28 02:00:54;;;;;;;13.10;2.78;;;;;;;2.11;100.00;99557.16;5031159;28;20452;-75
2021/11/28 02:03:19;;;;;;;12.45;2.35;;;;;;;2.06;100.00;99559.84;5000741;28;20393;-75
2021/11/28 02:05:47;;;;;;;14.85;2.80;;;;;;;2.05;100.00;99552.72;5017602;28;20033;-75
2021/11/28 02:08:12;;;;;;;12.15;2.42;;;;;;;2.03;100.00;99560.38;5033914;28;20448;-76
2021/11/28 02:10:38;;;;;;;10.73;2.95;;;;;;;2.05;100.00;99559.03;5035463;28;20032;-75
2021/11/28 02:13:03;;;;;;;15.43;2.60;;;;;;;2.04;100.00;99564.78;5037619;28;20037;-75
2021/11/28 02:15:29;;;;;;;15.32;2.88;;;;;;;2.01;100.00;99566.94;5027391;28;20112;-75
2021/11/28 02:17:55;;;;;;;17.52;2.38;;;;;;;2.06;100.00;99573.53;5034815;28;20029;-75
2021/11/28 02:20:22;;;;;;;13.88;1.77;;;;;;;2.04;100.00;99567.53;5028629;28;20037;-75
2021/11/28 02:22:48;;;;;;;18.85;2.25;;;;;;;2.06;100.00;99574.38;5016486;28;20055;-76
2021/11/28 02:25:13;;;;;;;16.73;2.90;;;;;;;2.05;100.00;99571.91;5034592;28;20042;-75
2021/11/28 02:27:39;;;;;;;13.93;2.50;;;;;;;2.04;100.00;99568.34;5033421;28;20032;-76
2021/11/28 02:30:05;;;;;;;19.35;2.47;;;;;;;2.04;100.00;99575.75;5017541;28;20049;-75
2021/11/28 02:32:30;;;;;;;15.90;2.03;;;;;;;1.99;100.00;99568.28;5023640;28;20372;-75
2021/11/28 02:34:56;;;;;;;19.38;2.45;;;;;;;2.03;100.00;99565.84;5032238;28;20057;-76
2021/11/28 02:37:22;;;;;;;13.30;2.30;;;;;;;2.01;100.00;99564.22;5018515;28;20581;-75
2021/11/28 02:39:47;;;;;;;19.92;2.30;;;;;;;2.03;100.00;99568.59;5030573;28;20560;-75
2021/11/28 02:42:16;;;;;;;10.05;2.15;;;;;;;2.04;100.00;99559.31;5031824;28;20029;-76
2021/11/28 02:44:42;;;;;;;11.13;1.90;;;;;;;2.05;100.00;99569.16;5031556;28;20025;-75
2021/11/28 02:47:07;;;;;;;15.00;2.00;;;;;;;2.04;100.00;99562.03;5033575;28;20536;-76
2021/11/28 02:49:33;;;;;;;13.38;1.73;;;;;;;2.03;100.00;99563.94;5034576;28;20032;-76
2021/11/28 02:51:58;;;;;;;11.35;1.77;;;;;;;2.06;100.00;99563.41;5035393;28;20036;-75
2021/11/28 02:54:24;;;;;;;14.38;2.35;;;;;;;2.00;100.00;99559.81;5032242;28;20037;-75
2021/11/28 02:56:49;;;;;;;9.88;1.70;;;;;;;2.03;100.00;99558.47;5014415;28;20025;-75
2021/11/28 02:59:15;;;;;;;15.40;2.25;;;;;;;1.99;100.00;99560.06;5030368;28;20022;-76
2021/11/28 03:01:41;;;;;;;18.80;2.35;;;;;;;2.00;100.00;99562.53;5033542;28;20398;-75
2021/11/28 03:04:06;;;;;;;11.10;1.90;;;;;;;1.96;100.00;99555.13;5032722;28;20025;-76
2021/11/28 03:06:32;;;;;;;12.55;2.00;;;;;;;1.94;100.00;99557.28;5023873;28;20030;-75
2021/11/28 03:08:57;;;;;;;15.77;2.15;;;;;;;1.89;100.00;99558.06;5030312;28;20061;-76
2021/11/28 03:11:22;;;;;;;12.90;1.67;;;;;;;1.85;100.00;99559.69;5032025;28;20041;-75
2021/11/28 03:13:50;;;;;;;15.35;1.77;;;;;;;1.77;100.00;99571.94;5033831;28;20038;-75
2021/11/28 03:16:20;;;;;;;11.43;2.28;;;;;;;1.77;100.00;99563.72;5033676;28;20037;-75
2021/11/28 03:18:47;;;;;;;15.10;1.88;;;;;;;1.74;100.00;99560.66;5000816;28;20033;-75
2021/11/28 03:21:18;;;;;;;15.60;1.58;;;;;;;1.71;100.00;99570.22;5033824;28;20029;-75
2021/11/28 03:23:44;;;;;;;16.05;1.75;;;;;;;1.72;100.00;99569.13;5031572;28;20080;-75
2021/11/28 03:26:28;;;;;;;19.10;2.47;;;;;;;1.74;100.00;99561.50;5030962;28;20037;-75
2021/11/28 03:29:05;;;;;;;11.32;2.13;;;;;;;1.75;100.00;99576.00;5033874;28;20155;-75
2021/11/28 03:31:33;;;;;;;15.48;1.95;;;;;;;1.77;100.00;99573.84;5030506;28;20061;-75
2021/11/28 03:33:59;;;;;;;13.57;1.98;;;;;;;1.78;100.00;99568.13;5018531;28;20033;-75
2021/11/28 03:36:25;;;;;;;11.55;1.92;;;;;;;1.75;100.00;99584.22;5028829;28;20057;-75
2021/11/28 03:38:51;;;;;;;12.90;2.63;;;;;;;1.76;100.00;99581.22;5035451;28;20029;-75
2021/11/28 03:41:18;;;;;;;13.95;2.67;;;;;;;1.76;100.00;99581.22;5036627;28;20025;-75
2021/11/28 03:43:43;;;;;;;17.48;2.47;;;;;;;1.78;100.00;99583.69;5034124;28;20029;-76
2021/11/28 03:46:09;;;;;;;13.88;2.55;;;;;;;1.77;100.00;99593.00;5032315;28;20041;-75
2021/11/28 03:48:34;;;;;;;10.50;2.28;;;;;;;1.81;100.00;99585.91;5038625;28;20108;-75
2021/11/28 03:51:00;;;;;;;15.50;1.92;;;;;;;1.79;100.00;99590.84;5038153;28;20048;-75
2021/11/28 03:53:25;;;;;;;17.17;2.70;;;;;;;1.83;100.00;99597.44;5036994;28;20520;-75
2021/11/28 03:55:52;;;;;;;10.35;1.92;;;;;;;1.79;100.00;99586.19;5036520;28;20030;-75
2021/11/28 03:58:18;;;;;;;12.65;2.17;;;;;;;1.81;100.00;99585.09;5017247;28;20041;-75
2021/11/28 04:00:44;;;;;;;16.23;2.05;;;;;;;1.81;100.00;99588.66;5031680;28;20394;-75
2021/11/28 04:03:10;;;;;;;11.73;1.90;;;;;;;1.81;100.00;99591.38;5021707;28;20048;-75
2021/11/28 04:05:35;;;;;;;10.30;1.92;;;;;;;1.82;100.00;99592.25;5036657;28;20025;-75
2021/11/28 04:08:01;;;;;;;19.25;2.03;;;;;;;1.81;100.00;99594.13;5034887;28;20033;-75
2021/11/28 04:10:26;;;;;;;17.20;2.10;;;;;;;1.79;100.00;99593.59;5020400;28;20033;-76
2021/11/28 04:12:52;;;;;;;18.13;2.70;;;;;;;1.82;100.00;99597.72;5012003;28;20371;-75
2021/11/28 04:15:18;;;;;;;16.13;2.50;;;;;;;1.81;100.00;99605.06;5020310;28;20053;-75
2021/11/28 04:17:43;;;;;;;20.60;2.85;;;;;;;1.81;100.00;99605.06;5038923;28;20041;-75
2021/11/28 04:20:09;;;;;;;13.90;2.20;;;;;;;1.79;100.00;99599.88;5017890;28;20060;-75
2021/11/28 04:22:35;;;;;;;16.85;2.17;;;;;;;1.81;100.00;99609.72;5036204;28;20030;-75
2021/11/28 04:25:00;;;;;;;14.13;1.75;;;;;;;1.79;100.00;99612.75;5018709;28;20494;-75
2021/11/28 04:27:27;;;;;;;13.40;2.05;;;;;;;1.79;100.00;99612.75;5016859;28;20046;-75
2021/11/28 04:29:53;;;;;;;8.30;2.22;;;;;;;1.84;100.00;99618.28;5037507;28;20036;-75
2021/11/28 04:32:18;;;;;;;17.08;2.65;;;;;;;1.78;100.00;99611.94;5036959;28;20037;-75
2021/11/28 04:34:44;;;;;;;14.75;1.98;;;;;;;1.76;100.00;99614.09;5031810;28;20030;-75
2021/11/28 04:37:09;;;;;;;15.25;2.45;;;;;;;1.79;100.00;99612.75;5039986;28;20441;-75
2021/11/28 04:39:35;;;;;;;11.25;1.83;;;;;;;1.81;100.00;99602.34;5025650;28;20026;-75
2021/11/28 04:42:01;;;;;;;15.88;2.03;;;;;;;1.80;100.00;99614.38;5029229;28;20053;-75
2021/11/28 04:44:26;;;;;;;18.27;2.05;;;;;;;1.79;100.00;99612.75;5037025;28;20033;-75
2021/11/28 04:46:52;;;;;;;16.02;2.33;;;;;;;1.80;100.00;99608.91;5003506;28;20045;-75
2021/11/28 04:49:17;;;;;;;13.40;1.70;;;;;;;1.79;100.00;99610.00;5035501;28;20038;-75
2021/11/28 04:51:43;;;;;;;12.13;1.77;;;;;;;1.76;100.00;99605.06;5036307;28;20034;-75
2021/11/28 04:54:08;;;;;;;9.88;1.92;;;;;;;1.76;100.00;99607.78;5017551;28;20021;-76
2021/11/28 04:56:34;;;;;;;13.50;2.10;;;;;;;1.76;100.00;99613.25;5035135;28;20021;-75
2021/11/28 04:58:59;;;;;;;19.13;1.90;;;;;;;1.77;100.00;99609.44;5016058;28;20106;-75
2021/11/28 05:01:25;;;;;;;17.17;1.85;;;;;;;1.73;100.00;99611.88;5030884;28;20030;-75
2021/11/28 05:03:50;;;;;;;17.88;2.15;;;;;;;1.75;100.00;99614.31;5033948;28;20464;-75
2021/11/28 05:06:16;;;;;;;15.88;1.65;;;;;;;1.77;100.00;99614.91;5033395;28;20033;-75
2021/11/28 05:08:41;;;;;;;19.98;1.85;;;;;;;1.77;100.00;99606.69;5033797;28;20033;-75
2021/11/28 05:11:07;;;;;;;8.10;1.67;;;;;;;1.75;100.00;99609.66;5036125;28;20032;-75
2021/11/28 05:13:32;;;;;;;11.13;1.98;;;;;;;1.73;100.00;99611.03;5033499;28;20037;-75
2021/11/28 05:15:58;;;;;;;10.70;1.95;;;;;;;1.72;100.00;99618.41;5032143;28;20033;-75
2021/11/28 05:18:23;;;;;;;14.35;1.92;;;;;;;1.72;100.00;99614.84;5036876;28;20029;-75
2021/11/28 05:20:49;;;;;;;17.45;1.65;;;;;;;1.71;100.00;99613.19;5033493;28;20064;-75
2021/11/28 05:23:15;;;;;;;12.02;1.83;;;;;;;1.71;100.00;99611.28;5036001;28;20032;-75
2021/11/28 05:25:41;;;;;;;14.20;2.10;;;;;;;1.70;100.00;99614.28;5034067;28;20045;-75
2021/11/28 05:28:08;;;;;;;10.50;1.90;;;;;;;1.71;100.00;99610.47;5035946;28;20025;-75
2021/11/28 05:30:35;;;;;;;12.00;1.88;;;;;;;1.71;100.00;99596.78;5033523;28;20389;-75
2021/11/28 05:33:00;;;;;;;8.77;1.38;;;;;;;1.72;100.00;99609.38;5033196;28;20029;-76
2021/11/28 05:35:26;;;;;;;14.18;1.63;;;;;;;1.73;100.00;99616.53;5017432;28;20052;-75
2021/11/28 05:37:51;;;;;;;16.40;1.77;;;;;;;1.73;100.00;99611.03;5035180;28;20034;-75
2021/11/28 05:40:17;;;;;;;5.13;1.20;;;;;;;1.76;100.00;99610.53;5034034;28;20033;-75
2021/11/28 05:42:48;;;;;;;13.63;1.50;;;;;;;1.75;100.00;99614.31;5015266;28;20040;-75
2021/11/28 05:45:14;;;;;;;13.88;2.00;;;;;;;1.74;100.00;99613.50;5036723;28;20029;-76
2021/11/28 05:47:40;;;;;;;10.45;1.65;;;;;;;1.75;100.00;99620.63;5018110;28;20025;-76
2021/11/28 05:50:06;;;;;;;9.48;1.25;;;;;;;1.75;100.00;99622.53;5034111;28;20030;-75
2021/11/28 05:52:31;;;;;;;11.68;1.77;;;;;;;1.78;100.00;99624.75;5017801;28;20039;-75
2021/11/28 05:54:57;;;;;;;13.30;2.05;;;;;;;1.82;100.00;99628.66;5029430;28;20034;-75
2021/11/28 05:57:22;;;;;;;11.93;1.52;;;;;;;1.79;100.00;99630.00;5031395;28;20025;-75
2021/11/28 05:59:48;;;;;;;18.73;1.60;;;;;;;1.78;100.00;99632.97;5026693;28;20048;-75
2021/11/28 06:02:13;;;;;;;8.95;1.42;;;;;;;1.80;100.00;99630.81;5008389;28;20089;-75
2021/11/28 06:04:39;;;;;;;11.38;2.42;;;;;;;1.75;100.00;99633.50;5030333;28;20022;-75
2021/11/28 06:07:04;;;;;;;13.25;1.77;;;;;;;1.74;100.00;99637.31;5033244;28;20057;-75
2021/11/28 06:09:30;;;;;;;12.77;1.90;;;;;;;1.72;100.00;99637.56;5014160;28;20034;-75
2021/11/28 06:11:55;;;;;;;14.50;1.55;;;;;;;1.69;100.00;99640.81;5034149;28;20037;-75
2021/11/28 06:14:21;;;;;;;15.50;1.77;;;;;;;1.65;100.00;99644.34;5032831;28;20034;-75
2021/11/28 06:16:46;;;;;;;11.85;1.90;;;;;;;1.63;100.00;99638.28;5029673;28;20482;-75
2021/11/28 06:19:12;;;;;;;10.23;1.73;;;;;;;1.65;100.00;99644.34;5035085;28;20033;-75
2021/11/28 06:21:37;;;;;;;13.80;1.58;;;;;;;1.57;100.00;99648.34;5034523;28;20030;-75
2021/11/28 06:24:03;;;;;;;8.48;1.50;;;;;;;1.49;100.00;99659.75;5032469;28;20103;-74
2021/11/28 06:26:28;;;;;;;11.43;1.85;;;;;;;1.47;100.00;99659.16;5016547;28;20072;-75
2021/11/28 06:28:54;;;;;;;14.45;2.20;;;;;;;1.47;100.00;99662.72;5032903;28;20478;-75
2021/11/28 06:31:19;;;;;;;12.05;1.90;;;;;;;1.44;100.00;99655.03;5032038;28;20508;-75
2021/11/28 06:33:45;;;;;;;13.35;2.58;;;;;;;1.43;100.00;99658.03;5031209;28;20030;-75
2021/11/28 06:36:11;;;;;;;15.93;2.38;;;;;;;1.40;100.00;99653.09;5029554;28;20635;-75
2021/11/28 06:38:36;;;;;;;12.63;1.75;;;;;;;1.36;100.00;99660.94;5032680;28;20025;-75
2021/11/28 06:41:02;;;;;;;14.85;1.90;;;;;;;1.34;100.00;99658.47;5016582;28;20034;-75
2021/11/28 06:43:28;;;;;;;11.48;1.55;;;;;;;1.30;100.00;99660.06;5033748;28;20040;-74
2021/11/28 06:45:53;;;;;;;10.65;1.80;;;;;;;1.27;100.00;99660.56;5016211;28;20021;-75
2021/11/28 06:48:18;;;;;;;10.70;1.75;;;;;;;1.26;100.00;99664.41;5022485;28;20651;-74
2021/11/28 06:50:44;;;;;;;12.32;1.90;;;;;;;1.28;100.00;99675.06;5030109;28;20356;-75
2021/11/28 06:53:10;;;;;;;13.20;1.95;;;;;;;1.27;100.00;99674.25;5016386;28;20052;-76
2021/11/28 06:55:35;;;;;;;11.98;2.05;;;;;;;1.26;100.00;99682.72;5032803;28;20493;-75
2021/11/28 06:58:01;;;;;;;7.88;2.05;;;;;;;1.23;100.00;99678.59;5033094;28;20029;-75
2021/11/28 07:00:26;;;;;;;14.10;2.78;;;;;;;1.25;100.00;99672.84;5000826;28;20497;-75
2021/11/28 07:02:52;;;;;;;15.85;1.70;;;;;;;1.20;100.00;99668.16;5032902;28;20036;-75
2021/11/28 07:05:17;;;;;;;13.82;2.58;;;;;;;1.16;100.00;99663.44;5033258;28;20057;-75
2021/11/28 07:07:42;;;;;;;8.93;1.77;;;;;;;1.15;100.00;99670.81;5034795;28;20033;-75
2021/11/28 07:10:08;;;;;;;10.93;2.20;;;;;;;1.16;100.00;99685.31;5035909;28;20026;-75
2021/11/28 07:12:34;;;;;;;13.57;2.60;;;;;;;1.16;100.00;99685.31;5047498;28;20057;-75
2021/11/28 07:14:59;;;;;;;14.68;2.60;;;;;;;1.13;100.00;99678.44;5037678;28;20501;-75
2021/11/28 07:17:24;;;;;;;16.83;3.50;;;;;;;1.08;100.00;99687.38;5036563;28;20053;-75
2021/11/28 07:19:50;;;;;;;20.25;3.75;;;;;;;1.08;100.00;99684.66;5032798;28;20045;-75
2021/11/28 07:22:15;;;;;;;14.00;2.65;;;;;;;1.02;100.00;99680.19;5038748;28;20049;-75
2021/11/28 07:24:41;;;;;;;22.05;4.50;;;;;;;1.10;100.00;99692.63;5020691;28;20042;-75
2021/11/28 07:27:07;;;;;;;12.50;3.50;;;;;;;1.08;100.00;99692.84;5034917;28;20057;-75
2021/11/28 07:29:32;;;;;;;17.42;2.72;;;;;;;1.09;100.00;99697.25;5037557;28;20033;-75
2021/11/28 07:31:58;;;;;;;13.32;3.53;;;;;;;1.07;100.00;99698.59;5035817;28;20049;-74
2021/11/28 07:34:23;;;;;;;13.15;3.60;;;;;;;1.08;100.00;99706.53;5019065;28;20033;-75
2021/11/28 07:36:48;;;;;;;18.33;4.95;;;;;;;1.07;100.00;99704.88;5037516;28;20053;-74
2021/11/28 07:39:14;;;;;;;16.10;4.32;;;;;;;1.04;100.00;99710.03;5034301;28;20036;-75
2021/11/28 07:41:39;;;;;;;15.27;3.65;;;;;;;1.07;100.00;99718.56;5034562;28;20025;-71
2021/11/28 07:44:05;;;;;;;15.82;3.42;;;;;;;1.09;100.00;99719.13;5018431;28;20026;-72
2021/11/28 07:46:30;;;;;;;15.35;3.00;;;;;;;1.10;100.00;99726.25;5003459;28;20089;-72
2021/11/28 07:48:56;;;;;;;14.57;2.95;;;;;;;1.09;100.00;99729.25;5020067;28;20089;-72
2021/11/28 07:51:22;;;;;;;12.90;2.80;;;;;;;1.13;100.00;99735.03;5015293;28;20623;-72
2021/11/28 07:53:49;;;;;;;9.77;3.05;;;;;;;1.15;100.00;99733.72;5011341;28;20034;-72
2021/11/28 07:56:14;;;;;;;16.85;2.97;;;;;;;1.14;100.00;99732.03;4986768;28;20025;-72
2021/11/28 07:58:40;;;;;;;18.45;3.60;;;;;;;1.24;100.00;99742.31;5024561;28;20037;-71
2021/11/28 08:01:05;;;;;;;21.33;3.28;;;;;;;1.23;100.00;99746.97;5012297;28;20399;-72
2021/11/28 08:03:31;;;;;;;13.88;2.92;;;;;;;1.28;100.00;99744.31;5019766;28;20030;-70
2021/11/28 08:05:59;;;;;;;17.27;2.20;;;;;;;1.32;100.00;99744.63;5016683;28;20044;-71
2021/11/28 08:08:27;;;;;;;13.77;2.17;;;;;;;1.34;100.00;99745.22;4986390;28;20501;-72
2021/11/28 08:10:54;;;;;;;13.20;2.20;;;;;;;1.37;100.00;99758.38;5017399;28;20044;-72
2021/11/28 08:13:19;;;;;;;10.77;2.53;;;;;;;1.39;100.00;99750.72;4985188;28;20041;-71
2021/11/28 08:15:45;;;;;;;14.77;2.08;;;;;;;1.44;100.00;99753.53;5017309;28;20040;-72
2021/11/28 08:18:10;;;;;;;10.52;2.22;;;;;;;1.45;100.00;99752.47;5036620;28;20079;-71
2021/11/28 08:20:36;;;;;;;15.02;2.15;;;;;;;1.50;100.00;99754.44;5031836;28;20033;-71
2021/11/28 08:23:03;;;;;;;12.38;2.40;;;;;;;1.55;100.00;99744.38;5038608;28;20517;-73
2021/11/28 08:25:28;;;;;;;11.38;3.00;;;;;;;1.56;100.00;99743.31;5002526;28;20703;-73
2021/11/28 08:27:54;;;;;;;13.02;4.60;;;;;;;1.62;100.00;99744.22;5033946;28;20037;-72
2021/11/28 08:30:19;;;;;;;8.30;1.73;;;;;;;1.68;100.00;99750.59;5035547;28;21785;-72
2021/11/28 08:32:46;;;;;;;12.35;2.53;;;;;;;1.71;100.00;99748.16;5034124;28;20821;-73
2021/11/28 08:35:11;;;;;;;12.52;2.83;;;;;;;1.76;100.00;99753.72;5011369;28;20030;-75
2021/11/28 08:37:37;;;;;;;12.63;3.22;;;;;;;1.84;100.00;99751.59;5016396;28;20076;-75
2021/11/28 08:40:04;;;;;;;11.20;3.05;;;;;;;1.90;100.00;99767.84;5030318;28;20030;-75
2021/11/28 08:42:32;;;;;;;18.88;3.25;;;;;;;1.94;100.00;99752.53;5030257;28;20033;-75
2021/11/28 08:45:01;;;;;;;19.60;4.10;;;;;;;2.05;100.00;99763.63;5019362;28;20030;-75
2021/11/28 08:47:27;;;;;;;22.48;6.28;;;;;;;2.11;100.00;99762.59;5032336;28;20029;-73
2021/11/28 08:49:52;;;;;;;18.95;5.68;;;;;;;2.16;100.00;99758.00;5032630;28;20037;-75
2021/11/28 08:52:18;;;;;;;14.88;4.80;;;;;;;2.23;100.00;99760.56;5034954;28;20038;-74
2021/11/28 08:54:43;;;;;;;11.85;4.97;;;;;;;2.30;100.00;99761.16;5036722;28;20036;-74
2021/11/28 08:57:09;;;;;;;16.98;4.85;;;;;;;2.39;100.00;99756.88;5035721;28;20029;-74
2021/11/28 08:59:34;;;;;;;18.10;5.10;;;;;;;2.47;100.00;99753.66;5026035;28;20033;-73
2021/11/28 09:02:00;;;;;;;15.13;4.57;;;;;;;2.56;100.00;99754.03;5032935;28;20041;-76
2021/11/28 09:04:25;;;;;;;16.25;6.18;;;;;;;2.66;100.00;99753.31;5033006;28;20359;-75
2021/11/28 09:06:51;;;;;;;16.35;4.85;;;;;;;2.76;100.00;99758.88;5036892;28;20029;-73
2021/11/28 09:09:16;;;;;;;16.08;4.68;;;;;;;2.87;100.00;99755.13;5036251;28;20433;-76
2021/11/28 09:11:42;;;;;;;16.95;5.53;;;;;;;2.98;100.00;99756.06;5035061;28;20052;-74
2021/11/28 09:14:08;;;;;;;11.93;4.68;;;;;;;3.08;100.00;99753.38;5033563;28;20029;-77
2021/11/28 09:16:33;;;;;;;9.48;3.97;;;;;;;3.20;100.00;99758.66;5012438;28;20401;-74
2021/11/28 09:19:06;;;;;;;13.40;3.88;;;;;;;3.28;100.00;99757.34;5038432;28;20034;-73
2021/11/28 09:21:32;;;;;;;16.23;3.88;;;;;;;3.36;100.00;99763.16;5035441;28;20164;-72
2021/11/28 09:26:42;;;;;;;19.23;5.18;;;;;;;3.47;100.00;99765.97;5020841;28;20053;-74
2021/11/28 09:29:08;;;;;;;12.38;3.05;;;;;;;3.48;99.34;99770.38;5035512;28;20035;-75
2021/11/28 09:31:33;;;;;;;16.83;4.57;;;;;;;3.53;100.00;99764.91;5013042;28;20025;-76
2021/11/28 09:33:59;;;;;;;15.90;3.67;;;;;;;3.59;100.00;99766.59;5001661;28;20038;-73
2021/11/28 09:36:27;;;;;;;21.52;3.65;;;;;;;3.65;100.00;99775.69;5033113;28;20500;-72
2021/11/28 09:38:53;;;;;;;17.08;3.70;;;;;;;3.65;99.59;99771.03;5037131;28;20025;-73
2021/11/28 09:41:18;;;;;;;15.90;4.65;;;;;;;3.68;98.64;99765.00;5026595;28;20037;-73
2021/11/28 09:43:50;;;;;;;19.25;4.80;;;;;;;3.70;99.38;99771.03;5031833;28;20099;-72
2021/11/28 09:46:17;;;;;;;11.55;3.30;;;;;;;3.73;100.00;99767.78;5015395;28;20053;-72
2021/11/28 09:48:43;;;;;;;25.27;6.80;;;;;;;3.77;99.04;99759.84;5034220;28;20034;-72
2021/11/28 09:51:09;;;;;;;15.95;5.72;;;;;;;3.82;99.31;99762.59;5015363;28;20089;-72
2021/11/28 09:53:36;;;;;;;22.42;6.65;;;;;;;3.85;99.13;99764.00;5035382;28;20025;-72
2021/11/28 09:56:04;;;;;;;20.00;6.05;;;;;;;3.89;99.62;99757.69;5017702;28;20121;-72
2021/11/28 09:58:30;;;;;;;23.35;5.53;;;;;;;3.89;97.71;99760.44;5031133;28;20033;-73
2021/11/28 10:00:56;;;;;;;20.45;5.00;;;;;;;3.98;97.04;99760.72;5035141;28;20037;-72
2021/11/28 10:03:21;;;;;;;12.77;4.00;;;;;;;4.02;99.79;99761.88;5016663;28;20064;-72
2021/11/28 10:05:49;;;;;;;15.10;5.50;;;;;;;4.08;97.82;99758.03;5010882;28;20030;-72
2021/11/28 10:08:15;;;;;;;19.67;3.35;;;;;;;4.13;96.04;99755.31;5017900;28;20386;-72
2021/11/28 10:10:42;;;;;;;16.25;4.00;;;;;;;4.22;96.21;99750.94;5032172;28;20083;-72
2021/11/28 10:13:08;;;;;;;14.55;3.47;;;;;;;4.32;95.69;99757.53;5032709;28;20366;-72
2021/11/28 10:15:33;;;;;;;11.77;5.00;;;;;;;4.43;95.86;99748.22;5007092;28;20033;-72
2021/11/28 10:17:59;;;;;;;13.55;2.85;;;;;;;4.57;94.64;99743.00;5033994;28;20049;-71
2021/11/28 10:20:26;;;;;;;8.75;1.63;;;;;;;4.70;92.59;99743.31;5038086;28;20033;-71
2021/11/28 10:22:52;;;;;;;14.95;2.72;;;;;;;4.82;96.30;99740.31;5012915;28;20109;-73
2021/11/28 10:25:30;;;;;;;13.05;2.40;;;;;;;4.97;95.67;99735.91;5033362;28;20076;-73
2021/11/28 10:27:57;;;;;;;10.65;1.33;;;;;;;5.09;92.23;99740.00;5034057;28;20417;-73
2021/11/28 10:30:35;;;;;;;9.88;2.15;;;;;;;5.17;90.41;99740.56;5027951;28;20038;-73
2021/11/28 10:33:06;;;;;;;13.77;3.85;;;;;;;5.24;90.32;99738.38;5031743;28;20021;-72
2021/11/28 10:35:31;;;;;;;10.57;3.20;;;;;;;5.31;90.37;99741.63;5020209;28;20045;-73
2021/11/28 10:37:57;;;;;;;10.18;3.00;;;;;;;5.30;84.78;99743.56;5014851;28;20033;-73
2021/11/28 10:40:27;;;;;;;8.85;3.30;;;;;;;5.34;86.11;99746.59;5023530;28;20596;-74
2021/11/28 10:43:15;;;;;;;9.65;3.25;;;;;;;5.34;80.80;99741.06;5036499;28;20452;-75
2021/11/28 10:45:47;;;;;;;12.60;3.20;;;;;;;5.33;78.07;99740.25;5031506;28;20030;-74
2021/11/28 10:48:13;;;;;;;7.95;3.67;;;;;;;5.32;76.46;99746.03;5034299;28;20448;-74
2021/11/28 10:50:39;;;;;;;11.65;3.97;;;;;;;5.36;80.58;99744.38;5037546;28;20049;-74
2021/11/28 10:53:09;;;;;;;12.15;5.65;;;;;;;5.38;79.12;99744.94;5033157;28;20124;-71
2021/11/28 10:55:43;;;;;;;12.32;4.15;;;;;;;5.36;79.79;99744.38;5019294;28;20040;-72
2021/11/28 10:58:18;;;;;;;15.95;6.22;;;;;;;5.35;76.27;99746.31;5026938;28;23453;-72
2021/11/28 11:00:50;;;;;;;9.98;4.57;;;;;;;5.39;79.81;99743.81;5035851;28;20065;-72
2021/11/28 11:03:27;;;;;;;11.35;4.05;;;;;;;5.40;78.95;99745.47;5037254;28;20028;-72
2021/11/28 11:05:57;;;;;;;13.88;4.53;;;;;;;5.42;85.27;99732.25;5037895;28;20029;-72
2021/11/28 11:08:26;;;;;;;9.50;3.88;;;;;;;5.47;87.18;99739.69;5020269;28;20642;-71
2021/11/28 11:11:13;;;;;;;7.97;3.40;;;;;;;5.46;83.56;99730.59;5035032;28;20047;-71
2021/11/28 11:14:12;;;;;;;12.38;4.93;;;;;;;5.47;82.04;99729.50;5008725;28;20037;-70
2021/11/28 11:16:41;;;;;;;12.68;4.00;;;;;;;5.47;80.68;99735.00;5018636;28;20060;-71
2021/11/28 11:19:31;;;;;;;15.20;4.05;;;;;;;5.47;79.79;99718.47;5037817;28;20041;-71
2021/11/28 11:22:11;;;;;;;11.30;3.70;;;;;;;5.55;84.01;99728.91;5019101;28;20024;-71
2021/11/28 11:24:38;;;;;;;10.40;2.55;;;;;;;5.56;81.51;99736.06;5006697;28;20041;-72
2021/11/28 11:27:11;;;;;;;13.10;3.38;;;;;;;5.57;80.97;99737.72;5037647;28;20408;-70
2021/11/28 11:29:37;;;;;;;;;;;;;;;5.65;77.27;99721.72;5036076;28;20040;-73
2021/11/28 11:32:08;;;;;;;7.60;1.40;;;;;;;5.88;74.89;99734.88;5035821;28;19913;-72